createdAt,value
2018-09-03T00:00:36.480Z,14.73
2018-09-03T00:03:04.927Z,12.00
2018-09-03T00:05:33.274Z,11.80
2018-09-03T00:08:01.620Z,12.10
2018-09-03T00:10:29.958Z,13.77
2018-09-03T00:12:58.315Z,11.73
2018-09-03T00:15:26.646Z,12.63
2018-09-03T00:17:54.998Z,12.47
2018-09-03T00:20:23.372Z,11.63
2018-09-03T00:22:51.748Z,12.43
2018-09-03T00:25:20.132Z,13.97
2018-09-03T00:27:48.516Z,12.77
2018-09-03T00:30:16.845Z,12.67
2018-09-03T00:32:50.435Z,13.47
2018-09-03T00:35:24.176Z,12.90
2018-09-03T00:37:57.867Z,13.13
2018-09-03T00:40:31.517Z,13.40
2018-09-03T00:43:05.189Z,12.93
2018-09-03T00:45:38.906Z,13.30
2018-09-03T00:48:07.258Z,14.93
2018-09-03T00:50:35.621Z,13.97
2018-09-03T00:53:03.986Z,12.13
2018-09-03T00:55:32.348Z,13.37
2018-09-03T00:58:00.719Z,13.90
2018-09-03T01:00:29.115Z,14.70
2018-09-03T01:02:57.471Z,14.07
2018-09-03T01:05:25.839Z,14.30
2018-09-03T01:07:54.219Z,15.53
2018-09-03T01:10:22.659Z,16.60
2018-09-03T01:12:51.016Z,16.03
2018-09-03T01:15:19.491Z,16.53
2018-09-03T01:17:47.871Z,18.37
2018-09-03T01:20:16.250Z,16.63
2018-09-03T01:22:44.571Z,15.20
2018-09-03T01:25:12.875Z,15.73
2018-09-03T01:27:41.305Z,13.40
2018-09-03T01:30:09.673Z,15.23
2018-09-03T01:32:38.031Z,14.90
2018-09-03T01:35:06.403Z,15.27
2018-09-03T01:37:34.755Z,15.27
2018-09-03T01:40:03.103Z,15.17
2018-09-03T01:42:31.507Z,15.73
2018-09-03T01:44:59.872Z,16.13
2018-09-03T01:47:28.279Z,17.47
2018-09-03T01:49:56.647Z,17.07
2018-09-03T01:52:25.012Z,18.23
2018-09-03T01:54:53.691Z,17.27
2018-09-03T01:57:22.123Z,16.50
2018-09-03T01:59:50.471Z,17.97
2018-09-03T02:02:18.812Z,16.93
2018-09-03T02:04:47.160Z,17.93
2018-09-03T02:07:15.516Z,18.43
2018-09-03T02:09:43.861Z,17.90
2018-09-03T02:12:12.613Z,18.40
2018-09-03T02:14:41.955Z,18.33
2018-09-03T02:17:11.356Z,17.60
2018-09-03T02:19:39.735Z,18.07
2018-09-03T02:22:08.376Z,19.90
2018-09-03T02:24:36.976Z,19.97
2018-09-03T02:27:05.366Z,18.97
2018-09-03T02:29:33.694Z,21.70
2018-09-03T02:32:02.025Z,20.80
2018-09-03T02:34:30.368Z,20.43
2018-09-03T02:36:58.772Z,20.80
2018-09-03T02:39:27.112Z,20.00
2018-09-03T02:41:55.470Z,20.00
2018-09-03T02:44:23.846Z,20.23
2018-09-03T02:46:52.320Z,21.60
2018-09-03T02:49:20.700Z,20.77
2018-09-03T02:51:49.062Z,20.90
2018-09-03T02:54:17.474Z,20.27
2018-09-03T02:56:45.820Z,22.43
2018-09-03T02:59:14.162Z,21.93
2018-09-03T03:01:42.524Z,21.50
2018-09-03T03:04:10.890Z,21.77
2018-09-03T03:06:39.264Z,21.00
2018-09-03T03:09:08.588Z,18.80
2018-09-03T03:11:37.608Z,21.50
2018-09-03T03:14:05.996Z,21.73
2018-09-03T03:16:34.393Z,18.97
2018-09-03T03:19:02.994Z,18.77
2018-09-03T03:21:31.371Z,20.50
2018-09-03T03:23:59.734Z,21.27
2018-09-03T03:26:28.106Z,22.07
2018-09-03T03:28:56.502Z,24.20
2018-09-03T03:31:24.897Z,25.03
2018-09-03T03:33:53.891Z,25.17
2018-09-03T03:36:22.314Z,24.60
2018-09-03T03:38:50.647Z,26.20
2018-09-03T03:41:19.014Z,25.83
2018-09-03T03:43:47.366Z,24.43
2018-09-03T03:46:15.719Z,25.67
2018-09-03T03:48:44.091Z,24.97
2018-09-03T03:51:12.459Z,27.13
2018-09-03T03:53:40.862Z,26.13
2018-09-03T03:56:09.223Z,27.10
2018-09-03T03:58:37.619Z,27.50
2018-09-03T04:01:06.023Z,27.60
2018-09-03T04:03:34.377Z,26.20
2018-09-03T04:06:02.727Z,27.43
2018-09-03T04:08:31.084Z,32.07
2018-09-03T04:10:59.477Z,27.27
2018-09-03T04:13:29.127Z,27.03
2018-09-03T04:15:58.027Z,25.90
2018-09-03T04:18:26.413Z,24.57
2018-09-03T04:20:54.775Z,24.93
2018-09-03T04:23:23.276Z,25.50
2018-09-03T04:25:51.532Z,27.30
2018-09-03T04:28:19.936Z,27.93
2018-09-03T04:30:48.362Z,28.53
2018-09-03T04:33:16.738Z,28.27
2018-09-03T04:35:45.070Z,32.00
2018-09-03T04:38:13.428Z,26.03
2018-09-03T04:40:41.832Z,29.23
2018-09-03T04:43:10.174Z,29.93
2018-09-03T04:45:38.650Z,30.40
2018-09-03T04:48:07.150Z,31.50
2018-09-03T04:50:35.446Z,29.63
2018-09-03T04:53:03.859Z,28.87
2018-09-03T04:55:32.203Z,31.03
2018-09-03T04:58:00.786Z,29.43
2018-09-03T05:00:29.161Z,27.30
2018-09-03T05:02:57.531Z,25.80
2018-09-03T05:05:25.901Z,26.80
2018-09-03T05:07:54.275Z,24.37
2018-09-03T05:10:22.687Z,27.40
2018-09-03T05:12:51.139Z,26.70
2018-09-03T05:15:19.504Z,25.93
2018-09-03T05:17:47.907Z,27.03
2018-09-03T05:20:16.280Z,31.73
2018-09-03T05:22:44.703Z,29.90
2018-09-03T05:25:13.119Z,30.00
2018-09-03T05:27:41.427Z,29.20
2018-09-03T05:30:09.895Z,31.33
2018-09-03T05:32:38.677Z,29.87
2018-09-03T05:35:07.255Z,30.70
2018-09-03T05:37:35.622Z,30.03
2018-09-03T05:40:04.108Z,32.57
2018-09-03T05:42:32.479Z,31.40
2018-09-03T05:45:00.836Z,32.60
2018-09-03T05:47:29.241Z,30.70
2018-09-03T05:49:57.639Z,32.50
2018-09-03T05:52:26.015Z,35.30
2018-09-03T05:54:54.490Z,32.07
2018-09-03T05:57:23.038Z,37.30
2018-09-03T05:59:51.397Z,39.10
2018-09-03T06:02:19.787Z,38.53
2018-09-03T06:04:48.181Z,37.77
2018-09-03T06:07:16.596Z,34.80
2018-09-03T06:09:44.954Z,35.07
2018-09-03T06:12:13.361Z,37.50
2018-09-03T06:14:41.731Z,37.57
2018-09-03T06:17:10.106Z,35.53
2018-09-03T06:19:38.479Z,36.73
2018-09-03T06:22:06.894Z,37.27
2018-09-03T06:24:35.281Z,37.37
2018-09-03T06:27:03.957Z,37.83
2018-09-03T06:29:32.303Z,36.60
2018-09-03T06:32:00.696Z,39.67
2018-09-03T06:34:29.088Z,40.63
2018-09-03T06:36:57.444Z,40.37
2018-09-03T06:39:25.804Z,39.97
2018-09-03T06:41:54.401Z,39.83
2018-09-03T06:44:22.745Z,42.17
2018-09-03T06:46:51.138Z,42.07
2018-09-03T06:49:19.514Z,41.57
2018-09-03T06:51:47.868Z,42.43
2018-09-03T06:54:16.220Z,40.33
2018-09-03T06:56:44.615Z,43.07
2018-09-03T06:59:12.981Z,41.83
2018-09-03T07:01:41.306Z,40.33
2018-09-03T07:04:09.683Z,38.00
2018-09-03T07:06:38.086Z,37.97
2018-09-03T07:09:09.025Z,38.33
2018-09-03T07:11:37.431Z,40.33
2018-09-03T07:14:06.099Z,41.47
2018-09-03T07:16:34.492Z,42.47
2018-09-03T07:19:02.872Z,40.43
2018-09-03T07:21:31.260Z,42.23
2018-09-03T07:23:59.692Z,42.00
2018-09-03T07:26:28.125Z,44.03
2018-09-03T07:28:57.352Z,44.33
2018-09-03T07:31:25.695Z,45.83
2018-09-03T07:33:54.074Z,44.97
2018-09-03T07:36:22.453Z,44.30
2018-09-03T07:38:50.841Z,42.70
2018-09-03T07:41:19.234Z,42.03
2018-09-03T07:43:47.630Z,41.63
2018-09-03T07:46:15.993Z,42.80
2018-09-03T07:48:44.360Z,40.63
2018-09-03T07:51:12.718Z,40.47
2018-09-03T07:53:41.051Z,43.03
2018-09-03T07:56:09.435Z,43.03
2018-09-03T07:58:37.795Z,42.30
2018-09-03T08:01:06.350Z,43.73
2018-09-03T08:03:34.773Z,43.43
2018-09-03T08:06:03.132Z,41.87
2018-09-03T08:08:31.539Z,41.30
2018-09-03T08:10:59.928Z,41.23
2018-09-03T08:13:33.528Z,41.40
2018-09-03T08:16:01.940Z,40.20
2018-09-03T08:18:30.324Z,40.20
2018-09-03T08:20:58.693Z,40.07
2018-09-03T08:23:27.054Z,38.43
2018-09-03T08:25:55.441Z,38.50
2018-09-03T08:28:23.907Z,37.23
2018-09-03T08:30:52.242Z,37.70
2018-09-03T08:33:20.637Z,38.27
2018-09-03T08:35:49.001Z,36.00
2018-09-03T08:38:17.371Z,35.27
2018-09-03T08:40:45.707Z,36.73
2018-09-03T08:43:14.180Z,33.03
2018-09-03T08:45:42.553Z,31.67
2018-09-03T08:48:10.961Z,31.47
2018-09-03T08:50:39.743Z,31.67
2018-09-03T08:53:08.930Z,31.53
2018-09-03T08:55:37.317Z,31.40
2018-09-03T08:58:05.742Z,32.37
2018-09-03T09:00:34.167Z,31.17
2018-09-03T09:03:02.552Z,32.37
2018-09-03T09:05:30.907Z,31.30
2018-09-03T09:07:59.285Z,31.07
2018-09-03T09:10:27.675Z,30.83
2018-09-03T09:12:56.013Z,31.77
2018-09-03T09:15:24.381Z,30.80
2018-09-03T09:17:52.786Z,31.90
2018-09-03T09:20:21.168Z,30.43
2018-09-03T09:22:49.543Z,31.70
2018-09-03T09:25:17.945Z,31.97
2018-09-03T09:27:46.373Z,30.00
2018-09-03T09:30:14.728Z,32.93
2018-09-03T09:32:43.163Z,33.23
2018-09-03T09:35:11.535Z,33.13
2018-09-03T09:37:39.914Z,31.70
2018-09-03T09:40:08.347Z,31.87
2018-09-03T09:42:39.320Z,31.70
2018-09-03T09:45:07.739Z,32.47
2018-09-03T09:47:36.333Z,31.70
2018-09-03T09:50:04.779Z,32.47
2018-09-03T09:52:33.491Z,32.73
2018-09-03T09:55:01.967Z,32.27
2018-09-03T09:57:30.328Z,33.20
2018-09-03T09:59:58.950Z,32.43
2018-09-03T10:02:27.646Z,31.97
2018-09-03T10:04:56.004Z,32.37
2018-09-03T10:07:24.387Z,32.60
2018-09-03T10:09:52.989Z,33.03
2018-09-03T10:12:35.808Z,33.53
2018-09-03T10:15:04.201Z,30.00
2018-09-03T10:17:32.576Z,32.90
2018-09-03T10:20:00.962Z,31.73
2018-09-03T10:22:29.455Z,31.87
2018-09-03T10:24:57.799Z,30.80
2018-09-03T10:27:26.202Z,31.70
2018-09-03T10:29:54.592Z,32.57
2018-09-03T10:32:23.392Z,32.90
2018-09-03T10:34:51.768Z,31.93
2018-09-03T10:37:20.152Z,30.90
2018-09-03T10:39:48.504Z,32.13
2018-09-03T10:42:21.133Z,31.60
2018-09-03T10:44:49.470Z,32.53
2018-09-03T10:47:18.045Z,29.87
2018-09-03T10:49:46.321Z,30.60
2018-09-03T10:52:14.687Z,32.13
2018-09-03T10:54:43.093Z,30.93
2018-09-03T10:57:11.526Z,31.23
2018-09-03T10:59:40.208Z,31.23
2018-09-03T11:02:08.887Z,31.50
2018-09-03T11:04:37.485Z,30.07
2018-09-03T11:07:06.167Z,32.07
2018-09-03T11:09:34.536Z,30.50
2018-09-03T11:12:03.034Z,30.50
2018-09-03T11:14:31.418Z,31.90
2018-09-03T11:16:59.823Z,29.30
2018-09-03T11:19:30.270Z,30.37
2018-09-03T11:21:58.639Z,29.75
2018-09-03T11:24:27.109Z,27.93
2018-09-03T11:26:55.502Z,29.83
2018-09-03T11:29:23.901Z,29.20
2018-09-03T11:31:52.240Z,29.73
2018-09-03T11:34:20.623Z,27.70
2018-09-03T11:36:49.029Z,29.17
2018-09-03T11:39:17.395Z,29.03
2018-09-03T11:41:45.777Z,24.73
2018-09-03T11:44:14.160Z,28.07
2018-09-03T11:46:42.528Z,26.10
2018-09-03T11:49:10.878Z,25.77
2018-09-03T11:51:39.292Z,27.30
2018-09-03T11:54:07.798Z,26.77
2018-09-03T11:56:36.173Z,28.27
2018-09-03T11:59:04.659Z,27.70
2018-09-03T12:01:33.046Z,27.77
2018-09-03T12:04:01.419Z,27.10
2018-09-03T12:06:29.829Z,26.60
2018-09-03T12:08:58.179Z,25.03
2018-09-03T12:11:26.586Z,25.73
2018-09-03T12:13:55.050Z,25.00
2018-09-03T12:16:25.725Z,26.37
2018-09-03T12:18:56.304Z,27.70
2018-09-03T12:21:24.652Z,27.93
2018-09-03T12:23:53.045Z,25.83
2018-09-03T12:26:21.460Z,26.67
2018-09-03T12:28:49.852Z,24.67
2018-09-03T12:31:18.277Z,25.33
2018-09-03T12:33:46.683Z,23.20
2018-09-03T12:36:15.069Z,24.97
2018-09-03T12:38:43.491Z,23.83
2018-09-03T12:41:11.896Z,24.17
2018-09-03T12:43:40.397Z,23.70
2018-09-03T12:46:09.118Z,23.27
2018-09-03T12:48:37.467Z,24.67
2018-09-03T12:51:06.242Z,23.13
2018-09-03T12:53:34.878Z,24.27
2018-09-03T12:56:03.780Z,24.30
2018-09-03T12:58:32.201Z,24.53
2018-09-03T13:01:00.639Z,24.23
2018-09-03T13:03:28.989Z,24.07
2018-09-03T13:05:57.307Z,24.97
2018-09-03T13:08:25.697Z,26.43
2018-09-03T13:10:54.053Z,28.27
2018-09-03T13:13:22.462Z,27.97
2018-09-03T13:15:50.841Z,25.93
2018-09-03T13:18:19.225Z,27.57
2018-09-03T13:20:47.632Z,27.17
2018-09-03T13:23:16.571Z,24.13
2018-09-03T13:25:44.956Z,23.70
2018-09-03T13:28:13.464Z,24.10
2018-09-03T13:30:41.836Z,24.00
2018-09-03T13:33:10.225Z,23.80
2018-09-03T13:35:45.295Z,23.47
2018-09-03T13:38:13.693Z,23.07
2018-09-03T13:40:42.082Z,21.07
2018-09-03T13:43:10.450Z,22.17
2018-09-03T13:45:38.813Z,23.17
2018-09-03T13:48:07.181Z,22.63
2018-09-03T13:50:35.618Z,21.63
2018-09-03T13:53:03.961Z,22.17
2018-09-03T13:55:32.307Z,22.80
2018-09-03T13:58:00.693Z,21.53
2018-09-03T14:00:29.103Z,21.87
2018-09-03T14:02:57.536Z,22.60
2018-09-03T14:05:25.918Z,22.60
2018-09-03T14:07:54.327Z,22.37
2018-09-03T14:10:22.703Z,21.43
2018-09-03T14:12:51.074Z,22.50
2018-09-03T14:15:19.456Z,22.70
2018-09-03T14:17:47.865Z,21.83
2018-09-03T14:20:16.199Z,22.20
2018-09-03T14:22:44.545Z,22.13
2018-09-03T14:25:12.994Z,20.57
2018-09-03T14:27:41.366Z,21.10
2018-09-03T14:30:09.731Z,20.10
2018-09-03T14:32:38.112Z,19.90
2018-09-03T14:35:06.464Z,21.73
2018-09-03T14:37:34.844Z,20.53
2018-09-03T14:40:03.332Z,22.00
2018-09-03T14:42:32.198Z,21.03
2018-09-03T14:45:00.632Z,21.63
2018-09-03T14:47:29.842Z,22.63
2018-09-03T14:49:58.392Z,22.57
2018-09-03T14:52:26.805Z,22.23
2018-09-03T14:54:55.205Z,22.37
2018-09-03T14:57:23.592Z,21.40
2018-09-03T14:59:52.098Z,21.93
2018-09-03T15:02:20.512Z,21.23
2018-09-03T15:04:48.915Z,21.83
2018-09-03T15:07:17.531Z,23.00
2018-09-03T15:09:45.929Z,22.27
2018-09-03T15:12:14.312Z,22.33
2018-09-03T15:14:42.705Z,21.50
2018-09-03T15:17:11.117Z,22.73
2018-09-03T15:19:39.495Z,21.63
2018-09-03T15:22:07.878Z,22.17
2018-09-03T15:24:36.243Z,21.53
2018-09-03T15:27:04.657Z,21.90
2018-09-03T15:29:33.060Z,20.53
2018-09-03T15:32:01.466Z,20.77
2018-09-03T15:34:29.922Z,21.90
2018-09-03T15:36:58.313Z,22.37
2018-09-03T15:39:26.717Z,22.47
2018-09-03T15:41:55.145Z,23.03
2018-09-03T15:44:23.553Z,22.57
2018-09-03T15:46:51.940Z,20.83
2018-09-03T15:49:20.313Z,21.70
2018-09-03T15:51:48.705Z,21.33
2018-09-03T15:54:18.072Z,22.10
2018-09-03T15:56:46.552Z,19.97
2018-09-03T15:59:14.920Z,21.77
2018-09-03T16:01:43.256Z,20.20
2018-09-03T16:04:11.625Z,19.37
2018-09-03T16:06:40.057Z,19.60
2018-09-03T16:09:09.798Z,18.80
2018-09-03T16:11:38.303Z,20.27
2018-09-03T16:14:07.492Z,18.80
2018-09-03T16:16:36.014Z,19.27
2018-09-03T16:19:04.514Z,19.53
2018-09-03T16:21:32.929Z,19.53
2018-09-03T16:24:01.336Z,19.50
2018-09-03T16:26:30.228Z,19.87
2018-09-03T16:28:58.649Z,19.90
2018-09-03T16:31:27.026Z,19.33
2018-09-03T16:33:55.525Z,19.53
2018-09-03T16:36:23.913Z,19.70
2018-09-03T16:38:52.511Z,18.80
2018-09-03T16:41:20.797Z,18.30
2018-09-03T16:43:49.176Z,18.63
2018-09-03T16:46:17.572Z,18.93
2018-09-03T16:48:45.956Z,20.23
2018-09-03T16:51:14.323Z,19.23
2018-09-03T16:53:42.708Z,19.33
2018-09-03T16:56:11.101Z,18.60
2018-09-03T16:58:39.515Z,18.73
2018-09-03T17:01:08.988Z,19.37
2018-09-03T17:03:37.373Z,19.17
2018-09-03T17:06:06.043Z,18.43
2018-09-03T17:08:34.586Z,17.67
2018-09-03T17:11:03.026Z,19.83
2018-09-03T17:13:31.507Z,18.33
2018-09-03T17:15:59.868Z,17.57
2018-09-03T17:18:28.238Z,18.53
2018-09-03T17:20:56.574Z,17.60
2018-09-03T17:23:24.911Z,18.13
2018-09-03T17:25:53.279Z,18.13
2018-09-03T17:28:21.649Z,21.83
2018-09-03T17:30:50.065Z,18.33
2018-09-03T17:33:18.463Z,19.13
2018-09-03T17:35:46.887Z,19.33
2018-09-03T17:38:15.350Z,19.27
2018-09-03T17:40:43.795Z,18.83
2018-09-03T17:43:12.151Z,19.40
2018-09-03T17:45:40.566Z,18.87
2018-09-03T17:48:09.921Z,18.53
2018-09-03T17:50:38.373Z,20.03
2018-09-03T17:53:06.783Z,20.60
2018-09-03T17:55:35.217Z,20.67
2018-09-03T17:58:03.679Z,20.73
2018-09-03T18:00:32.082Z,20.97
2018-09-03T18:03:00.425Z,22.30
2018-09-03T18:05:28.859Z,22.07
2018-09-03T18:07:57.536Z,21.60
2018-09-03T18:10:25.938Z,21.70
2018-09-03T18:12:54.324Z,21.27
2018-09-03T18:15:22.883Z,20.13
2018-09-03T18:17:51.300Z,21.57
2018-09-03T18:20:19.673Z,22.00
2018-09-03T18:22:48.016Z,21.33
2018-09-03T18:25:17.070Z,22.20
2018-09-03T18:27:45.464Z,23.40
2018-09-03T18:30:13.903Z,22.73
2018-09-03T18:32:42.946Z,21.87
2018-09-03T18:35:11.330Z,21.20
2018-09-03T18:37:39.790Z,21.40
2018-09-03T18:40:08.179Z,20.97
2018-09-03T18:42:36.516Z,22.97
2018-09-03T18:45:05.232Z,21.07
2018-09-03T18:47:34.554Z,20.77
2018-09-03T18:50:03.015Z,21.93
2018-09-03T18:52:31.409Z,22.63
2018-09-03T18:54:59.817Z,25.73
2018-09-03T18:57:28.404Z,27.53
2018-09-03T18:59:56.880Z,25.23
2018-09-03T19:02:25.382Z,28.53
2018-09-03T19:04:55.256Z,28.07
2018-09-03T19:07:23.596Z,26.93
2018-09-03T19:09:52.113Z,30.30
2018-09-03T19:12:20.536Z,29.87
2018-09-03T19:14:48.948Z,33.67
2018-09-03T19:17:17.344Z,26.33
2018-09-03T19:19:45.718Z,27.70
2018-09-03T19:22:14.227Z,31.63
2018-09-03T19:24:42.542Z,31.03
2018-09-03T19:27:11.116Z,32.17
2018-09-03T19:29:39.740Z,37.00
2018-09-03T19:32:08.115Z,36.73
2018-09-03T19:34:36.614Z,35.70
2018-09-03T19:37:05.010Z,32.90
2018-09-03T19:39:33.381Z,33.90
2018-09-03T19:42:01.749Z,33.47
2018-09-03T19:44:30.113Z,34.37
2018-09-03T19:46:58.515Z,34.17
2018-09-03T19:49:26.876Z,32.20
2018-09-03T19:51:55.241Z,30.50
2018-09-03T19:54:23.633Z,31.73
2018-09-03T19:56:53.311Z,33.03
2018-09-03T19:59:21.873Z,32.23
2018-09-03T20:01:50.281Z,31.87
2018-09-03T20:04:18.652Z,34.83
2018-09-03T20:06:47.064Z,33.60
2018-09-03T20:09:15.501Z,34.87
2018-09-03T20:11:43.919Z,34.00
2018-09-03T20:14:12.281Z,36.10
2018-09-03T20:16:40.663Z,33.93
2018-09-03T20:19:09.043Z,33.83
2018-09-03T20:21:37.419Z,34.73
2018-09-03T20:24:05.831Z,33.67
2018-09-03T20:26:34.168Z,34.73
2018-09-03T20:29:02.533Z,33.93
2018-09-03T20:31:30.903Z,35.10
2018-09-03T20:33:59.253Z,34.23
2018-09-03T20:36:27.678Z,34.90
2018-09-03T20:38:55.992Z,34.73
2018-09-03T20:41:24.319Z,35.63
2018-09-03T20:43:52.699Z,34.80
2018-09-03T20:46:21.132Z,35.73
2018-09-03T20:48:49.487Z,34.73
2018-09-03T20:51:17.903Z,34.83
2018-09-03T20:53:46.259Z,34.53
2018-09-03T20:56:14.605Z,35.00
2018-09-03T20:58:42.985Z,36.83
2018-09-03T21:01:11.369Z,35.43
2018-09-03T21:03:39.730Z,35.37
2018-09-03T21:06:08.088Z,36.50
2018-09-03T21:08:36.477Z,34.17
2018-09-03T21:11:04.847Z,36.13
2018-09-03T21:13:33.470Z,36.70
2018-09-03T21:16:02.015Z,34.53
2018-09-03T21:18:30.417Z,34.03
2018-09-03T21:20:58.822Z,33.47
2018-09-03T21:23:27.183Z,34.63
2018-09-03T21:25:55.592Z,33.10
2018-09-03T21:28:24.017Z,34.47
2018-09-03T21:30:52.352Z,33.90
2018-09-03T21:33:20.690Z,31.93
2018-09-03T21:35:49.044Z,32.30
2018-09-03T21:38:17.514Z,32.83
2018-09-03T21:40:45.910Z,31.50
2018-09-03T21:43:14.262Z,32.30
2018-09-03T21:45:42.579Z,31.67
2018-09-03T21:48:10.988Z,31.57
2018-09-03T21:50:39.311Z,31.63
2018-09-03T21:53:07.687Z,32.67
2018-09-03T21:55:42.532Z,32.53
2018-09-03T21:58:10.887Z,31.33
2018-09-03T22:00:39.278Z,31.97
2018-09-03T22:03:07.645Z,31.70
2018-09-03T22:05:36.089Z,30.67
2018-09-03T22:08:04.447Z,33.17
2018-09-03T22:10:32.801Z,32.73
2018-09-03T22:13:01.159Z,34.23
2018-09-03T22:15:29.593Z,31.53
2018-09-03T22:17:57.969Z,32.03
2018-09-03T22:20:26.579Z,32.27
2018-09-03T22:22:55.056Z,31.50
2018-09-03T22:25:23.695Z,31.60
2018-09-03T22:27:52.079Z,31.60
2018-09-03T22:30:20.486Z,29.97
2018-09-03T22:32:48.819Z,29.90
2018-09-03T22:35:17.202Z,30.13
2018-09-03T22:37:45.534Z,31.40
2018-09-03T22:40:13.883Z,28.67
2018-09-03T22:42:42.264Z,28.57
2018-09-03T22:45:10.672Z,29.33
2018-09-03T22:47:38.990Z,28.40
2018-09-03T22:50:07.355Z,30.73
2018-09-03T22:52:35.696Z,27.13
2018-09-03T22:55:04.104Z,29.23
2018-09-03T22:57:32.430Z,27.83
2018-09-03T23:00:00.789Z,27.87
2018-09-03T23:02:29.210Z,28.23
2018-09-03T23:04:57.570Z,29.33
2018-09-03T23:07:25.944Z,28.13
2018-09-03T23:09:54.316Z,29.23
2018-09-03T23:12:22.660Z,30.20
2018-09-03T23:14:51.009Z,28.80
2018-09-03T23:17:19.376Z,29.30
2018-09-03T23:19:47.730Z,28.57
2018-09-03T23:22:16.094Z,29.23
2018-09-03T23:24:44.460Z,29.80
2018-09-03T23:27:13.005Z,29.53
2018-09-03T23:29:41.374Z,30.83
2018-09-03T23:32:09.742Z,30.43
2018-09-03T23:34:38.090Z,31.73
2018-09-03T23:37:06.476Z,31.50
2018-09-03T23:39:34.850Z,29.67
2018-09-03T23:42:03.221Z,31.30
2018-09-03T23:44:31.582Z,31.47
2018-09-03T23:46:59.936Z,31.33
2018-09-03T23:49:28.288Z,33.90
2018-09-03T23:51:56.726Z,31.90
2018-09-03T23:54:25.143Z,32.50
2018-09-03T23:56:53.484Z,32.17
2018-09-03T23:59:22.049Z,35.10
